createdAt,value
2017-07-11T00:00:35.525Z,0
2017-07-11T00:01:16.060Z,0
2017-07-11T00:01:56.606Z,0
2017-07-11T00:02:37.137Z,0
2017-07-11T00:03:17.684Z,0
2017-07-11T00:03:58.255Z,0
2017-07-11T00:04:38.766Z,0
2017-07-11T00:05:19.308Z,0
2017-07-11T00:05:59.836Z,0
2017-07-11T00:06:40.380Z,0
2017-07-11T00:07:20.907Z,0
2017-07-11T00:08:01.441Z,0
2017-07-11T00:08:41.977Z,0
2017-07-11T00:09:22.522Z,0
2017-07-11T00:10:03.058Z,0
2017-07-11T00:10:43.597Z,0
2017-07-11T00:11:24.133Z,0
2017-07-11T00:12:04.668Z,0
2017-07-11T00:12:45.203Z,0
2017-07-11T00:13:25.744Z,0
2017-07-11T00:14:06.289Z,0
2017-07-11T00:14:46.815Z,0
2017-07-11T00:15:27.356Z,0
2017-07-11T00:16:07.900Z,0
2017-07-11T00:16:48.425Z,0
2017-07-11T00:17:28.964Z,0
2017-07-11T00:18:09.487Z,0
2017-07-11T00:18:50.033Z,0
2017-07-11T00:19:30.566Z,0
2017-07-11T00:20:11.111Z,0
2017-07-11T00:20:51.643Z,0
2017-07-11T00:21:32.181Z,0
2017-07-11T00:22:12.718Z,0
2017-07-11T00:22:53.259Z,0
2017-07-11T00:23:33.799Z,0
2017-07-11T00:24:14.342Z,0
2017-07-11T00:24:54.869Z,0
2017-07-11T00:25:35.412Z,0
2017-07-11T00:26:15.944Z,0
2017-07-11T00:26:56.475Z,0
2017-07-11T00:27:37.014Z,0
2017-07-11T00:28:17.554Z,0
2017-07-11T00:28:58.094Z,0
2017-07-11T00:29:38.622Z,0
2017-07-11T00:30:19.170Z,0
2017-07-11T00:30:59.715Z,0
2017-07-11T00:31:40.248Z,0
2017-07-11T00:32:20.785Z,0
2017-07-11T00:33:01.326Z,0
2017-07-11T00:33:41.867Z,0
2017-07-11T00:34:22.405Z,0
2017-07-11T00:35:02.928Z,0
2017-07-11T00:35:43.464Z,0
2017-07-11T00:36:23.995Z,0
2017-07-11T00:37:04.533Z,0
2017-07-11T00:37:45.069Z,0
2017-07-11T00:38:25.618Z,0
2017-07-11T00:39:06.159Z,0
2017-07-11T00:39:46.705Z,0
2017-07-11T00:40:27.240Z,0
2017-07-11T00:41:07.778Z,0
2017-07-11T00:41:48.322Z,0
2017-07-11T00:42:28.858Z,0
2017-07-11T00:43:09.392Z,0
2017-07-11T00:43:49.925Z,0
2017-07-11T00:44:30.465Z,0
2017-07-11T00:45:11.006Z,0
2017-07-11T00:45:51.549Z,0
2017-07-11T00:46:32.092Z,0
2017-07-11T00:47:12.634Z,0
2017-07-11T00:47:53.163Z,0
2017-07-11T00:48:33.694Z,0
2017-07-11T00:49:14.233Z,0
2017-07-11T00:49:54.776Z,0
2017-07-11T00:50:35.303Z,0
2017-07-11T00:51:15.840Z,0
2017-07-11T00:51:56.367Z,0
2017-07-11T00:52:36.909Z,0
2017-07-11T00:53:17.445Z,0
2017-07-11T00:53:57.986Z,0
2017-07-11T00:54:38.523Z,0
2017-07-11T00:55:19.055Z,0
2017-07-11T00:55:59.589Z,0
2017-07-11T00:56:40.127Z,0
2017-07-11T00:57:20.662Z,0
2017-07-11T00:58:01.201Z,0
2017-07-11T00:58:41.740Z,0
2017-07-11T00:59:22.287Z,0
2017-07-11T01:00:02.829Z,0
2017-07-11T01:00:43.372Z,0
2017-07-11T01:01:23.910Z,0
2017-07-11T01:02:04.447Z,0
2017-07-11T01:02:44.975Z,0
2017-07-11T01:03:25.509Z,0
2017-07-11T01:04:06.049Z,0
2017-07-11T01:04:46.587Z,0
2017-07-11T01:05:27.121Z,0
2017-07-11T01:06:07.662Z,0
2017-07-11T01:06:48.198Z,0
2017-07-11T01:07:28.739Z,0
2017-07-11T01:08:09.281Z,0
2017-07-11T01:08:49.801Z,0
2017-07-11T01:09:30.338Z,0
2017-07-11T01:10:10.872Z,0
2017-07-11T01:10:51.457Z,0
2017-07-11T01:11:31.949Z,0
2017-07-11T01:12:12.488Z,0
2017-07-11T01:12:53.023Z,0
2017-07-11T01:13:33.562Z,0
2017-07-11T01:14:14.102Z,0
2017-07-11T01:14:54.648Z,0
2017-07-11T01:15:35.185Z,0
2017-07-11T01:16:15.727Z,0
2017-07-11T01:16:56.271Z,0
2017-07-11T01:17:36.811Z,0
2017-07-11T01:18:17.355Z,0
2017-07-11T01:18:57.883Z,0
2017-07-11T01:19:38.408Z,0
2017-07-11T01:20:18.949Z,0
2017-07-11T01:20:59.543Z,0
2017-07-11T01:21:40.066Z,0
2017-07-11T01:22:20.613Z,0
2017-07-11T01:23:01.233Z,0
2017-07-11T01:23:41.768Z,0
2017-07-11T01:24:22.309Z,0
2017-07-11T01:25:02.848Z,0
2017-07-11T01:25:43.391Z,0
2017-07-11T01:26:23.930Z,0
2017-07-11T01:27:04.460Z,0
2017-07-11T01:27:44.990Z,0
2017-07-11T01:28:25.526Z,0
2017-07-11T01:29:06.062Z,0
2017-07-11T01:29:46.617Z,0
2017-07-11T01:30:27.136Z,0
2017-07-11T01:31:07.674Z,0
2017-07-11T01:31:48.214Z,0
2017-07-11T01:32:28.760Z,0
2017-07-11T01:33:09.308Z,0
2017-07-11T01:33:49.854Z,0
2017-07-11T01:34:30.383Z,0
2017-07-11T01:35:10.939Z,0
2017-07-11T01:35:51.480Z,0
2017-07-11T01:36:32.031Z,0
2017-07-11T01:37:12.573Z,0
2017-07-11T01:37:53.118Z,0
2017-07-11T01:38:33.653Z,0
2017-07-11T01:39:14.191Z,0
2017-07-11T01:39:54.728Z,0
2017-07-11T01:40:35.270Z,0
2017-07-11T01:41:15.807Z,0
2017-07-11T01:41:56.348Z,0
2017-07-11T01:42:36.907Z,0
2017-07-11T01:43:17.449Z,0
2017-07-11T01:43:57.989Z,0
2017-07-11T01:44:38.521Z,0
2017-07-11T01:45:19.046Z,0
2017-07-11T01:45:59.584Z,0
2017-07-11T01:46:40.126Z,0
2017-07-11T01:47:20.668Z,0
2017-07-11T01:48:01.208Z,0
2017-07-11T01:48:41.758Z,0
2017-07-11T01:49:22.306Z,0
2017-07-11T01:50:02.857Z,0
2017-07-11T01:50:43.404Z,0
2017-07-11T01:51:23.947Z,0
2017-07-11T01:52:04.482Z,0
2017-07-11T01:52:45.019Z,0
2017-07-11T01:53:25.555Z,0
2017-07-11T01:54:06.091Z,0
2017-07-11T01:54:46.637Z,0
2017-07-11T01:55:27.185Z,0
2017-07-11T01:56:07.727Z,0
2017-07-11T01:56:48.280Z,0
2017-07-11T01:57:28.824Z,0
2017-07-11T01:58:09.367Z,0
2017-07-11T01:58:49.905Z,0
2017-07-11T01:59:30.444Z,0
2017-07-11T02:00:10.973Z,0
2017-07-11T02:00:51.513Z,0
2017-07-11T02:01:32.054Z,0
2017-07-11T02:02:12.594Z,0
2017-07-11T02:02:53.131Z,0
2017-07-11T02:03:33.677Z,0
2017-07-11T02:04:14.219Z,0
2017-07-11T02:04:54.761Z,0
2017-07-11T02:05:35.290Z,0
2017-07-11T02:06:15.829Z,0
2017-07-11T02:06:56.406Z,0
2017-07-11T02:07:36.898Z,0
2017-07-11T02:08:17.439Z,0
2017-07-11T02:08:57.977Z,0
2017-07-11T02:09:38.557Z,0
2017-07-11T02:10:19.103Z,0
2017-07-11T02:10:59.643Z,0
2017-07-11T02:11:40.185Z,0
2017-07-11T02:12:20.731Z,0
2017-07-11T02:13:01.269Z,0
2017-07-11T02:13:41.799Z,0
2017-07-11T02:14:22.339Z,0
2017-07-11T02:15:02.877Z,0
2017-07-11T02:15:43.416Z,0
2017-07-11T02:16:23.957Z,0
2017-07-11T02:17:04.501Z,0
2017-07-11T02:17:45.047Z,0
2017-07-11T02:18:25.590Z,0
2017-07-11T02:19:06.125Z,0
2017-07-11T02:19:46.664Z,0
2017-07-11T02:20:27.245Z,0
2017-07-11T02:21:07.773Z,0
2017-07-11T02:21:48.307Z,0
2017-07-11T02:22:28.847Z,0
2017-07-11T02:23:09.374Z,0
2017-07-11T02:23:49.916Z,0
2017-07-11T02:24:30.451Z,0
2017-07-11T02:25:10.985Z,0
2017-07-11T02:25:51.532Z,0
2017-07-11T02:26:32.059Z,0
2017-07-11T02:27:12.584Z,0
2017-07-11T02:27:53.122Z,0
2017-07-11T02:28:33.673Z,0
2017-07-11T02:29:14.219Z,0
2017-07-11T02:29:54.748Z,0
2017-07-11T02:30:35.306Z,0
2017-07-11T02:31:15.838Z,0
2017-07-11T02:31:56.386Z,0
2017-07-11T02:32:36.932Z,0
2017-07-11T02:33:17.475Z,0
2017-07-11T02:33:57.998Z,0
2017-07-11T02:34:38.523Z,0
2017-07-11T02:35:19.065Z,0
2017-07-11T02:35:59.595Z,0
2017-07-11T02:36:40.153Z,0
2017-07-11T02:37:20.671Z,0
2017-07-11T02:38:01.207Z,0
2017-07-11T02:38:41.751Z,0
2017-07-11T02:39:22.291Z,0
2017-07-11T02:40:02.833Z,0
2017-07-11T02:40:43.375Z,0
2017-07-11T02:41:23.898Z,0
2017-07-11T02:42:04.446Z,0
2017-07-11T02:42:44.990Z,0
2017-07-11T02:43:25.526Z,0
2017-07-11T02:44:06.070Z,0
2017-07-11T02:44:46.618Z,0
2017-07-11T02:45:27.158Z,0
2017-07-11T02:46:07.692Z,0
2017-07-11T02:46:48.238Z,0
2017-07-11T02:47:28.779Z,0
2017-07-11T02:48:09.312Z,0
2017-07-11T02:48:49.851Z,0
2017-07-11T02:49:30.386Z,0
2017-07-11T02:50:10.965Z,0
2017-07-11T02:50:51.442Z,0
2017-07-11T02:51:31.988Z,0
2017-07-11T02:52:12.523Z,0
2017-07-11T02:52:53.069Z,0
2017-07-11T02:53:33.607Z,0
2017-07-11T02:54:14.156Z,0
2017-07-11T02:54:54.686Z,0
2017-07-11T02:55:35.220Z,0
2017-07-11T02:56:15.778Z,0
2017-07-11T02:56:56.299Z,0
2017-07-11T02:57:36.844Z,0
2017-07-11T02:58:17.367Z,0
2017-07-11T02:58:57.911Z,4
2017-07-11T02:59:38.453Z,4
2017-07-11T03:00:18.992Z,4
2017-07-11T03:00:59.531Z,4
2017-07-11T03:01:40.074Z,4
2017-07-11T03:02:20.611Z,4
2017-07-11T03:03:01.152Z,0
2017-07-11T03:03:41.704Z,4
2017-07-11T03:04:22.251Z,4
2017-07-11T03:05:02.795Z,4
2017-07-11T03:05:43.333Z,4
2017-07-11T03:06:23.876Z,8
2017-07-11T03:07:04.421Z,8
2017-07-11T03:07:44.949Z,4
2017-07-11T03:08:25.488Z,4
2017-07-11T03:09:06.027Z,8
2017-07-11T03:09:46.559Z,8
2017-07-11T03:10:27.105Z,8
2017-07-11T03:11:07.682Z,8
2017-07-11T03:11:48.234Z,12
2017-07-11T03:12:28.744Z,8
2017-07-11T03:13:09.297Z,12
2017-07-11T03:13:49.828Z,12
2017-07-11T03:14:30.342Z,12
2017-07-11T03:15:10.871Z,12
2017-07-11T03:15:51.428Z,16
2017-07-11T03:16:31.970Z,16
2017-07-11T03:17:12.513Z,20
2017-07-11T03:17:53.055Z,20
2017-07-11T03:18:33.587Z,20
2017-07-11T03:19:14.139Z,24
2017-07-11T03:19:54.669Z,28
2017-07-11T03:20:35.214Z,28
2017-07-11T03:21:15.731Z,28
2017-07-11T03:21:56.348Z,28
2017-07-11T03:22:36.829Z,32
2017-07-11T03:23:17.376Z,32
2017-07-11T03:23:57.922Z,36
2017-07-11T03:24:38.444Z,36
2017-07-11T03:25:18.943Z,44
2017-07-11T03:25:59.471Z,44
2017-07-11T03:26:40.011Z,44
2017-07-11T03:27:20.550Z,48
2017-07-11T03:28:01.087Z,52
2017-07-11T03:28:41.676Z,56
2017-07-11T03:29:22.220Z,56
2017-07-11T03:30:02.796Z,56
2017-07-11T03:30:43.372Z,60
2017-07-11T03:31:24.118Z,64
2017-07-11T03:32:04.659Z,72
2017-07-11T03:32:45.190Z,72
2017-07-11T03:33:25.736Z,76
2017-07-11T03:34:06.269Z,80
2017-07-11T03:34:46.798Z,80
2017-07-11T03:35:27.349Z,88
2017-07-11T03:36:07.846Z,88
2017-07-11T03:36:48.387Z,92
2017-07-11T03:37:28.923Z,96
2017-07-11T03:38:09.453Z,100
2017-07-11T03:38:50.000Z,104
2017-07-11T03:39:30.498Z,108
2017-07-11T03:40:11.043Z,112
2017-07-11T03:40:51.580Z,116
2017-07-11T03:41:32.132Z,116
2017-07-11T03:42:12.663Z,120
2017-07-11T03:42:53.205Z,124
2017-07-11T03:43:33.738Z,132
2017-07-11T03:44:14.259Z,140
2017-07-11T03:44:54.809Z,148
2017-07-11T03:45:35.383Z,156
2017-07-11T03:46:15.912Z,164
2017-07-11T03:46:56.460Z,168
2017-07-11T03:47:37.000Z,176
2017-07-11T03:48:17.540Z,184
2017-07-11T03:48:58.099Z,192
2017-07-11T03:49:38.624Z,196
2017-07-11T03:50:19.166Z,208
2017-07-11T03:50:59.698Z,216
2017-07-11T03:51:40.236Z,228
2017-07-11T03:52:20.771Z,240
2017-07-11T03:53:01.288Z,252
2017-07-11T03:55:21.339Z,284
2017-07-11T03:56:01.864Z,296
2017-07-11T03:56:42.410Z,312
2017-07-11T03:57:22.947Z,324
2017-07-11T03:58:03.500Z,336
2017-07-11T03:58:44.056Z,344
2017-07-11T03:59:24.588Z,352
2017-07-11T04:00:05.111Z,348
2017-07-11T04:00:45.658Z,344
2017-07-11T04:01:26.184Z,348
2017-07-11T04:02:06.726Z,356
2017-07-11T04:02:47.225Z,380
2017-07-11T04:03:27.758Z,400
2017-07-11T04:04:08.290Z,412
2017-07-11T04:04:48.845Z,408
2017-07-11T04:05:29.365Z,404
2017-07-11T04:06:09.902Z,412
2017-07-11T04:06:50.447Z,424
2017-07-11T04:07:30.994Z,432
2017-07-11T04:08:11.564Z,432
2017-07-11T04:08:52.102Z,440
2017-07-11T04:09:32.692Z,456
2017-07-11T04:10:13.233Z,476
2017-07-11T04:10:53.773Z,484
2017-07-11T04:11:34.314Z,496
2017-07-11T04:12:14.820Z,508
2017-07-11T04:12:55.346Z,520
2017-07-11T04:13:35.882Z,540
2017-07-11T04:14:16.419Z,552
2017-07-11T04:14:56.955Z,552
2017-07-11T04:15:37.482Z,560
2017-07-11T04:16:18.023Z,584
2017-07-11T04:16:58.556Z,604
2017-07-11T04:17:39.078Z,616
2017-07-11T04:18:19.637Z,632
2017-07-11T04:19:00.134Z,656
2017-07-11T04:19:40.675Z,676
2017-07-11T04:20:21.265Z,720
2017-07-11T04:21:01.799Z,756
2017-07-11T04:21:42.367Z,772
2017-07-11T04:22:22.903Z,768
2017-07-11T04:23:03.434Z,752
2017-07-11T04:23:43.981Z,744
2017-07-11T04:24:24.504Z,744
2017-07-11T04:25:05.092Z,748
2017-07-11T04:25:45.651Z,760
2017-07-11T04:26:26.190Z,788
2017-07-11T04:27:06.736Z,856
2017-07-11T04:27:47.262Z,920
2017-07-11T04:28:27.798Z,964
2017-07-11T04:29:08.333Z,980
2017-07-11T04:29:48.872Z,1032
2017-07-11T04:30:29.417Z,1056
2017-07-11T04:31:09.975Z,1108
2017-07-11T04:31:50.512Z,1172
2017-07-11T04:32:31.053Z,1212
2017-07-11T04:33:11.590Z,1216
2017-07-11T04:33:52.140Z,1172
2017-07-11T04:34:32.670Z,1140
2017-07-11T04:35:13.248Z,1148
2017-07-11T04:35:53.748Z,1128
2017-07-11T04:36:34.289Z,1164
2017-07-11T04:37:14.828Z,1236
2017-07-11T04:37:55.367Z,1296
2017-07-11T04:38:35.906Z,1284
2017-07-11T04:39:16.443Z,1272
2017-07-11T04:39:56.994Z,1224
2017-07-11T04:40:37.537Z,1204
2017-07-11T04:41:18.086Z,1288
2017-07-11T04:41:58.614Z,1356
2017-07-11T04:42:39.174Z,1384
2017-07-11T04:43:19.709Z,1360
2017-07-11T04:44:00.243Z,1328
2017-07-11T04:44:40.783Z,1424
2017-07-11T04:45:21.322Z,1460
2017-07-11T04:46:01.862Z,1472
2017-07-11T04:46:42.398Z,1504
2017-07-11T04:47:22.935Z,1536
2017-07-11T04:48:03.468Z,1528
2017-07-11T04:48:44.009Z,1556
2017-07-11T04:49:24.545Z,1588
2017-07-11T04:50:05.095Z,1644
2017-07-11T04:50:45.645Z,1716
2017-07-11T04:51:26.190Z,1772
2017-07-11T04:52:06.728Z,1832
2017-07-11T04:52:47.251Z,1824
2017-07-11T04:53:27.783Z,1820
2017-07-11T04:54:08.327Z,1884
2017-07-11T04:54:48.879Z,1916
2017-07-11T04:55:29.413Z,1884
2017-07-11T04:56:09.953Z,1952
2017-07-11T04:56:50.493Z,1972
2017-07-11T04:57:31.031Z,1924
2017-07-11T04:58:11.564Z,1900
2017-07-11T04:58:52.107Z,1896
2017-07-11T04:59:32.649Z,1904
2017-07-11T05:00:13.173Z,1964
2017-07-11T05:00:53.718Z,1980
2017-07-11T05:01:34.258Z,2000
2017-07-11T05:02:14.798Z,2000
2017-07-11T05:02:55.336Z,1980
2017-07-11T05:03:35.873Z,1960
2017-07-11T05:04:16.394Z,1896
2017-07-11T05:04:56.922Z,1844
2017-07-11T05:05:37.459Z,1804
2017-07-11T05:06:18.002Z,1788
2017-07-11T05:06:58.541Z,1756
2017-07-11T05:07:39.078Z,1712
2017-07-11T05:08:19.616Z,1680
2017-07-11T05:09:00.149Z,1704
2017-07-11T05:09:40.699Z,1740
2017-07-11T05:10:21.232Z,1776
2017-07-11T05:11:01.769Z,1940
2017-07-11T05:11:42.314Z,2088
2017-07-11T05:12:22.847Z,2184
2017-07-11T05:13:03.389Z,2284
2017-07-11T05:13:43.934Z,2360
2017-07-11T05:14:24.473Z,2356
2017-07-11T05:15:05.012Z,2360
2017-07-11T05:15:45.542Z,2340
2017-07-11T05:16:26.083Z,2348
2017-07-11T05:17:06.629Z,2416
2017-07-11T05:17:47.172Z,2492
2017-07-11T05:18:27.704Z,2508
2017-07-11T05:19:08.234Z,2500
2017-07-11T05:19:48.782Z,2464
2017-07-11T05:20:29.312Z,2492
2017-07-11T05:21:09.863Z,2492
2017-07-11T05:21:50.390Z,2544
2017-07-11T05:22:30.928Z,2600
2017-07-11T05:23:11.484Z,2688
2017-07-11T05:23:52.023Z,2796
2017-07-11T05:24:32.569Z,2852
2017-07-11T05:25:13.109Z,2848
2017-07-11T05:25:53.650Z,2780
2017-07-11T05:26:34.187Z,2852
2017-07-11T05:27:14.734Z,2792
2017-07-11T05:27:55.267Z,2812
2017-07-11T05:28:35.807Z,2856
2017-07-11T05:29:16.347Z,2904
2017-07-11T05:29:56.896Z,2840
2017-07-11T05:30:37.426Z,2812
2017-07-11T05:31:17.967Z,2848
2017-07-11T05:31:58.505Z,2948
2017-07-11T05:32:39.006Z,2832
2017-07-11T05:33:19.548Z,2868
2017-07-11T05:34:00.087Z,2984
2017-07-11T05:34:40.656Z,2872
2017-07-11T05:35:21.194Z,2932
2017-07-11T05:36:01.740Z,2972
2017-07-11T05:36:42.286Z,2972
2017-07-11T05:37:23.130Z,2908
2017-07-11T05:38:03.337Z,2928
2017-07-11T05:38:43.854Z,2928
2017-07-11T05:39:24.404Z,3044
2017-07-11T05:40:04.993Z,2988
2017-07-11T05:40:45.509Z,3080
2017-07-11T05:41:26.037Z,3220
2017-07-11T05:42:06.714Z,3248
2017-07-11T05:42:47.305Z,3352
2017-07-11T05:43:27.988Z,3480
2017-07-11T05:44:09.008Z,3472
2017-07-11T05:44:49.395Z,3500
2017-07-11T05:45:33.196Z,3560
2017-07-11T05:46:18.396Z,3572
2017-07-11T05:47:07.864Z,3692
2017-07-11T05:47:52.221Z,3708
2017-07-11T05:48:35.024Z,3692
2017-07-11T05:49:26.426Z,3628
2017-07-11T05:50:26.084Z,3464
2017-07-11T05:51:15.552Z,3380
2017-07-11T05:52:02.626Z,3632
2017-07-11T05:52:48.710Z,3472
2017-07-11T05:53:34.906Z,3556
2017-07-11T05:54:19.800Z,3744
2017-07-11T05:56:27.071Z,3848
2017-07-11T05:57:07.617Z,4104
2017-07-11T05:57:48.135Z,3920
2017-07-11T05:58:28.704Z,4092
2017-07-11T05:59:09.457Z,3936
2017-07-11T05:59:50.110Z,4132
2017-07-11T06:00:33.331Z,4116
2017-07-11T06:01:15.304Z,4028
2017-07-11T06:01:58.490Z,4056
2017-07-11T06:02:54.366Z,4032
2017-07-11T06:03:34.762Z,3892
2017-07-11T06:04:18.908Z,3628
2017-07-11T06:04:59.755Z,3452
2017-07-11T06:05:46.996Z,3196
2017-07-11T06:06:29.588Z,2896
2017-07-11T06:07:12.527Z,2756
2017-07-11T06:08:00.837Z,2812
2017-07-11T06:08:41.269Z,2988
2017-07-11T06:09:21.919Z,3208
2017-07-11T06:10:06.579Z,3332
2017-07-11T06:10:47.111Z,3288
2017-07-11T06:11:30.217Z,3228
2017-07-11T06:12:10.610Z,3124
2017-07-11T06:12:51.153Z,3104
2017-07-11T06:13:31.777Z,3236
2017-07-11T06:14:12.270Z,3520
2017-07-11T06:14:52.809Z,3640
2017-07-11T06:15:33.358Z,4000
2017-07-11T06:16:13.899Z,4036
2017-07-11T06:16:54.421Z,4300
2017-07-11T06:17:34.943Z,4488
2017-07-11T06:18:15.464Z,4440
2017-07-11T06:18:55.976Z,4544
2017-07-11T06:19:36.485Z,4560
2017-07-11T06:20:17.008Z,4728
2017-07-11T06:20:57.473Z,4732
2017-07-11T06:21:38.003Z,3944
2017-07-11T06:22:18.577Z,3852
2017-07-11T06:22:59.059Z,4052
2017-07-11T06:23:39.721Z,3536
2017-07-11T06:24:20.261Z,3240
2017-07-11T06:25:00.820Z,2632
2017-07-11T06:25:41.359Z,2788
2017-07-11T06:26:21.928Z,3180
2017-07-11T06:27:02.465Z,2980
2017-07-11T06:27:42.969Z,3136
2017-07-11T06:28:23.591Z,3784
2017-07-11T06:29:04.123Z,4032
2017-07-11T06:29:44.733Z,4276
2017-07-11T06:30:25.256Z,4616
2017-07-11T06:31:05.833Z,4620
2017-07-11T06:31:46.353Z,4516
2017-07-11T06:32:27.290Z,4312
2017-07-11T06:33:07.856Z,4164
2017-07-11T06:33:48.391Z,3964
2017-07-11T06:34:28.899Z,3724
2017-07-11T06:35:09.447Z,3536
2017-07-11T06:35:49.947Z,3440
2017-07-11T06:36:30.489Z,3416
2017-07-11T06:37:10.943Z,3440
2017-07-11T06:37:51.545Z,3496
2017-07-11T06:38:32.048Z,3508
2017-07-11T06:39:12.583Z,3604
2017-07-11T06:39:53.086Z,3612
2017-07-11T06:40:33.602Z,3608
2017-07-11T06:41:14.164Z,3388
2017-07-11T06:41:54.709Z,3412
2017-07-11T06:42:35.299Z,3704
2017-07-11T06:43:15.812Z,3744
2017-07-11T06:43:56.307Z,3704
2017-07-11T06:44:36.862Z,3648
2017-07-11T06:45:17.398Z,3628
2017-07-11T06:45:57.915Z,3564
2017-07-11T06:46:38.478Z,3556
2017-07-11T06:47:19.034Z,3568
2017-07-11T06:47:59.516Z,3600
2017-07-11T06:48:40.130Z,3752
2017-07-11T06:49:20.669Z,4072
2017-07-11T06:50:01.134Z,3956
2017-07-11T06:50:41.849Z,3888
2017-07-11T06:51:22.413Z,3956
2017-07-11T06:52:02.827Z,4284
2017-07-11T06:52:43.391Z,4548
2017-07-11T06:53:23.966Z,4596
2017-07-11T06:54:04.543Z,4744
2017-07-11T06:54:45.109Z,4788
2017-07-11T06:55:25.617Z,4848
2017-07-11T06:56:06.114Z,4736
2017-07-11T06:56:46.817Z,4832
2017-07-11T06:57:27.224Z,5060
2017-07-11T06:58:07.806Z,4852
2017-07-11T06:58:48.478Z,4892
2017-07-11T06:59:29.024Z,4688
2017-07-11T07:00:09.383Z,5024
2017-07-11T07:00:49.909Z,4960
2017-07-11T07:01:30.537Z,5236
2017-07-11T07:02:11.112Z,5204
2017-07-11T07:02:51.667Z,5320
2017-07-11T07:03:32.206Z,5452
2017-07-11T07:04:12.763Z,5240
2017-07-11T07:04:53.238Z,4884
2017-07-11T07:05:33.823Z,4628
2017-07-11T07:06:14.368Z,4624
2017-07-11T07:06:54.997Z,4596
2017-07-11T07:07:35.543Z,4528
2017-07-11T07:08:16.069Z,4484
2017-07-11T07:08:56.598Z,4524
2017-07-11T07:09:37.156Z,4624
2017-07-11T07:10:17.863Z,4688
2017-07-11T07:10:58.300Z,4796
2017-07-11T07:11:39.719Z,4904
2017-07-11T07:12:20.315Z,5092
2017-07-11T07:13:00.806Z,5224
2017-07-11T07:13:41.357Z,5360
2017-07-11T07:14:22.118Z,5352
2017-07-11T07:15:02.637Z,5336
2017-07-11T07:15:43.285Z,5280
2017-07-11T07:16:23.807Z,5160
2017-07-11T07:17:04.412Z,4956
2017-07-11T07:17:44.998Z,4888
2017-07-11T07:18:25.465Z,4812
2017-07-11T07:19:05.982Z,4940
2017-07-11T07:19:46.516Z,5352
2017-07-11T07:20:27.907Z,5440
2017-07-11T07:21:08.429Z,5364
2017-07-11T07:21:49.041Z,5160
2017-07-11T07:22:29.622Z,5144
2017-07-11T07:23:10.192Z,5520
2017-07-11T07:23:50.746Z,6624
2017-07-11T07:24:31.347Z,7328
2017-07-11T07:25:11.936Z,7504
2017-07-11T07:25:52.407Z,8252
2017-07-11T07:26:32.921Z,8424
2017-07-11T07:27:13.680Z,8800
2017-07-11T07:27:54.162Z,9888
2017-07-11T07:28:34.654Z,9624
2017-07-11T07:29:15.269Z,9344
2017-07-11T07:29:55.860Z,10512
2017-07-11T07:30:36.486Z,11380
2017-07-11T07:31:17.223Z,11104
2017-07-11T07:31:57.816Z,10400
2017-07-11T07:32:38.564Z,10884
2017-07-11T07:33:19.072Z,11140
2017-07-11T07:33:59.619Z,10904
2017-07-11T07:34:40.193Z,10300
2017-07-11T07:35:20.803Z,8264
2017-07-11T07:36:01.447Z,7236
2017-07-11T07:36:42.699Z,7040
2017-07-11T07:37:23.183Z,6116
2017-07-11T07:38:03.903Z,6016
2017-07-11T07:38:44.489Z,6480
2017-07-11T07:39:24.934Z,7292
2017-07-11T07:40:05.518Z,7172
2017-07-11T07:40:46.015Z,5868
2017-07-11T07:41:26.639Z,5872
2017-07-11T07:42:07.120Z,6316
2017-07-11T07:42:47.764Z,6692
2017-07-11T07:43:28.535Z,6984
2017-07-11T07:44:08.908Z,7216
2017-07-11T07:44:49.697Z,6924
2017-07-11T07:45:30.166Z,6736
2017-07-11T07:46:10.680Z,7180
2017-07-11T07:46:51.336Z,7940
2017-07-11T07:47:32.107Z,8924
2017-07-11T07:48:12.732Z,9628
2017-07-11T07:48:53.359Z,9508
2017-07-11T07:49:33.809Z,10284
2017-07-11T07:50:14.521Z,9732
2017-07-11T07:50:54.999Z,9880
2017-07-11T07:51:35.664Z,10160
2017-07-11T07:52:16.121Z,14124
2017-07-11T07:52:56.907Z,23488
2017-07-11T07:53:37.496Z,18688
2017-07-11T07:54:17.998Z,9792
2017-07-11T07:54:58.446Z,9836
2017-07-11T07:55:39.067Z,10000
2017-07-11T07:56:19.643Z,9436
2017-07-11T07:57:00.208Z,9596
2017-07-11T07:57:40.699Z,9468
2017-07-11T07:58:21.257Z,9720
2017-07-11T07:59:01.879Z,9996
2017-07-11T07:59:42.419Z,10268
2017-07-11T08:00:22.964Z,10116
2017-07-11T08:01:03.575Z,10128
2017-07-11T08:01:44.189Z,10428
2017-07-11T08:02:24.587Z,10948
2017-07-11T08:03:05.207Z,10268
2017-07-11T08:03:45.799Z,10152
2017-07-11T08:04:26.231Z,9488
2017-07-11T08:05:06.943Z,9988
2017-07-11T08:05:47.477Z,9732
2017-07-11T08:06:28.208Z,9660
2017-07-11T08:07:08.626Z,10316
2017-07-11T08:07:49.279Z,10732
2017-07-11T08:08:29.830Z,10352
2017-07-11T08:09:10.395Z,10172
2017-07-11T08:09:51.572Z,10736
2017-07-11T08:10:31.956Z,11840
2017-07-11T08:11:12.481Z,13436
2017-07-11T08:11:53.044Z,17856
2017-07-11T08:12:33.597Z,25856
2017-07-11T08:13:14.221Z,34816
2017-07-11T08:13:54.843Z,43616
2017-07-11T08:14:35.338Z,38016
2017-07-11T08:15:15.874Z,38592
2017-07-11T08:15:56.530Z,16376
2017-07-11T08:16:37.076Z,31968
2017-07-11T08:17:17.619Z,7996
2017-07-11T08:17:58.215Z,6356
2017-07-11T08:18:38.854Z,5692
2017-07-11T08:19:19.353Z,5892
2017-07-11T08:19:59.989Z,6468
2017-07-11T08:20:40.585Z,7196
2017-07-11T08:21:21.225Z,8584
2017-07-11T08:22:01.744Z,15732
2017-07-11T08:22:42.321Z,14548
2017-07-11T08:23:22.898Z,12236
2017-07-11T08:24:03.434Z,11804
2017-07-11T08:24:44.069Z,10020
2017-07-11T08:25:24.522Z,8076
2017-07-11T08:26:05.104Z,8644
2017-07-11T08:26:45.637Z,8012
2017-07-11T08:27:26.261Z,7728
2017-07-11T08:28:06.806Z,8256
2017-07-11T08:28:47.353Z,8384
2017-07-11T08:29:27.882Z,7992
2017-07-11T08:30:08.435Z,6796
2017-07-11T08:30:49.066Z,6352
2017-07-11T08:31:29.543Z,5884
2017-07-11T08:32:10.185Z,6196
2017-07-11T08:32:50.603Z,6904
2017-07-11T08:33:31.173Z,6920
2017-07-11T08:34:11.740Z,7184
2017-07-11T08:34:52.309Z,7488
2017-07-11T08:35:32.911Z,7940
2017-07-11T08:36:13.338Z,8108
2017-07-11T08:36:53.888Z,8088
2017-07-11T08:37:34.468Z,7992
2017-07-11T08:38:15.091Z,7960
2017-07-11T08:38:55.763Z,7864
2017-07-11T08:39:36.197Z,7704
2017-07-11T08:40:16.701Z,7836
2017-07-11T08:40:57.292Z,7560
2017-07-11T08:41:37.829Z,7272
2017-07-11T08:42:18.310Z,7276
2017-07-11T08:42:58.841Z,7188
2017-07-11T08:43:39.381Z,7100
2017-07-11T08:44:19.936Z,6732
2017-07-11T08:45:00.485Z,5572
2017-07-11T08:45:41.095Z,5092
2017-07-11T08:46:22.233Z,4844
2017-07-11T08:47:02.736Z,5088
2017-07-11T08:47:43.336Z,5604
2017-07-11T08:48:23.802Z,6516
2017-07-11T08:49:04.396Z,10244
2017-07-11T08:49:44.957Z,20512
2017-07-11T08:50:25.579Z,13080
2017-07-11T08:51:06.222Z,10552
2017-07-11T08:51:46.660Z,8220
2017-07-11T08:52:27.184Z,7728
2017-07-11T08:53:07.781Z,8000
2017-07-11T08:53:48.322Z,7232
2017-07-11T08:54:28.960Z,8632
2017-07-11T08:55:09.538Z,7104
2017-07-11T08:55:50.183Z,7128
2017-07-11T08:56:30.661Z,7408
2017-07-11T08:57:11.244Z,10084
2017-07-11T08:57:51.707Z,11004
2017-07-11T08:58:32.377Z,12856
2017-07-11T08:59:13.029Z,10884
2017-07-11T08:59:53.570Z,13692
2017-07-11T09:00:34.079Z,11652
2017-07-11T09:01:14.682Z,10608
2017-07-11T09:01:55.238Z,10488
2017-07-11T09:02:35.773Z,11056
2017-07-11T09:03:16.288Z,10708
2017-07-11T09:03:56.797Z,9180
2017-07-11T09:04:37.429Z,9420
2017-07-11T09:05:17.898Z,9412
2017-07-11T09:05:58.459Z,9312
2017-07-11T09:06:38.986Z,13704
2017-07-11T09:07:19.548Z,12796
2017-07-11T09:08:00.003Z,19872
2017-07-11T09:08:40.604Z,38336
2017-07-11T09:09:21.200Z,39712
2017-07-11T09:10:01.706Z,33440
2017-07-11T09:10:42.314Z,18528
2017-07-11T09:11:22.859Z,27584
2017-07-11T09:12:03.352Z,13584
2017-07-11T09:12:43.956Z,18176
2017-07-11T09:13:24.510Z,18240
2017-07-11T09:14:05.068Z,16208
2017-07-11T09:14:45.563Z,15352
2017-07-11T09:15:26.087Z,15076
2017-07-11T09:16:06.578Z,14584
2017-07-11T09:16:47.133Z,14712
2017-07-11T09:17:27.647Z,14676
2017-07-11T09:18:08.156Z,14412
2017-07-11T09:18:48.667Z,14152
2017-07-11T09:19:29.197Z,14252
2017-07-11T09:20:09.744Z,14952
2017-07-11T09:20:50.342Z,13860
2017-07-11T09:21:30.915Z,13872
2017-07-11T09:22:11.444Z,13608
2017-07-11T09:22:52.032Z,12680
2017-07-11T09:23:32.576Z,12636
2017-07-11T09:24:13.137Z,13784
2017-07-11T09:24:53.661Z,13560
2017-07-11T09:25:34.212Z,14852
2017-07-11T09:26:14.728Z,13840